Terminal Aerodrome Forecast
Issued by NWS

Home | Current Version | Previous Version | Text Only | Print | Product List | Glossary On
Versions: 1 2 3 4 5 6 7 8 9 10 11 12 13 14 15 16 17 18 19 20 21 22 23 24 25 26 27 28 29
000
FTUS45 KLKN 291700
TAFELY
TAF
KELY 291720Z 2918/3018 VRB05KT P6SM VCSH BKN050 OVC070
     FM292000 34010KT P6SM VCTS BKN060CB
      TEMPO 2920/2924 VRB15G40KT 5SM TSRA BKN040CB
     FM300000 35010KT P6SM VCTS SCT040CB OVC060
      TEMPO 3000/3004 VRB15G35KT 5SM TSRA BKN040CB
     FM300400 02007KT P6SM VCSH SCT040 BKN070=

USA.gov is the U.S. government's official web portal to all federal, state and local government web resources and services.